sensor_id;sensor_type;location;lat;lon;timestamp;P1;durP1;ratioP1;P2;durP2;ratioP2
17696;SDS011;8967;47.984;7.842;2022-08-01T00:01:52;2.17;;;1.40;;
17696;SDS011;8967;47.984;7.842;2022-08-01T00:04:19;1.35;;;1.25;;
17696;SDS011;8967;47.984;7.842;2022-08-01T00:06:46;2.65;;;1.40;;
17696;SDS011;8967;47.984;7.842;2022-08-01T00:09:13;1.95;;;1.30;;
17696;SDS011;8967;47.984;7.842;2022-08-01T00:11:41;1.58;;;1.48;;
17696;SDS011;8967;47.984;7.842;2022-08-01T00:14:08;2.97;;;1.45;;
17696;SDS011;8967;47.984;7.842;2022-08-01T00:16:35;3.42;;;1.65;;
17696;SDS011;8967;47.984;7.842;2022-08-01T00:19:03;1.70;;;1.60;;
17696;SDS011;8967;47.984;7.842;2022-08-01T00:21:30;2.83;;;1.50;;
17696;SDS011;8967;47.984;7.842;2022-08-01T00:23:56;3.72;;;1.33;;
17696;SDS011;8967;47.984;7.842;2022-08-01T00:26:24;3.05;;;1.63;;
17696;SDS011;8967;47.984;7.842;2022-08-01T00:28:52;1.40;;;1.30;;
17696;SDS011;8967;47.984;7.842;2022-08-01T00:31:19;2.53;;;1.70;;
17696;SDS011;8967;47.984;7.842;2022-08-01T00:33:46;1.60;;;1.50;;
17696;SDS011;8967;47.984;7.842;2022-08-01T00:36:13;1.10;;;1.10;;
17696;SDS011;8967;47.984;7.842;2022-08-01T00:38:40;4.95;;;1.73;;
17696;SDS011;8967;47.984;7.842;2022-08-01T00:41:07;1.90;;;1.80;;
17696;SDS011;8967;47.984;7.842;2022-08-01T00:43:34;2.30;;;1.65;;
17696;SDS011;8967;47.984;7.842;2022-08-01T00:46:02;1.80;;;1.55;;
17696;SDS011;8967;47.984;7.842;2022-08-01T00:48:29;3.38;;;1.90;;
17696;SDS011;8967;47.984;7.842;2022-08-01T00:50:56;1.60;;;1.50;;
17696;SDS011;8967;47.984;7.842;2022-08-01T00:53:23;2.33;;;1.40;;
17696;SDS011;8967;47.984;7.842;2022-08-01T00:55:50;1.60;;;1.50;;
17696;SDS011;8967;47.984;7.842;2022-08-01T00:58:17;2.33;;;1.40;;
17696;SDS011;8967;47.984;7.842;2022-08-01T01:00:44;2.60;;;1.70;;
17696;SDS011;8967;47.984;7.842;2022-08-01T01:03:12;3.58;;;1.70;;
17696;SDS011;8967;47.984;7.842;2022-08-01T01:05:44;3.05;;;2.03;;
17696;SDS011;8967;47.984;7.842;2022-08-01T01:08:22;1.60;;;1.50;;
17696;SDS011;8967;47.984;7.842;2022-08-01T01:10:57;2.83;;;1.70;;
17696;SDS011;8967;47.984;7.842;2022-08-01T01:13:33;2.13;;;1.60;;
17696;SDS011;8967;47.984;7.842;2022-08-01T01:16:05;3.20;;;1.52;;
17696;SDS011;8967;47.984;7.842;2022-08-01T01:18:37;2.30;;;1.70;;
17696;SDS011;8967;47.984;7.842;2022-08-01T01:21:13;1.85;;;1.55;;
17696;SDS011;8967;47.984;7.842;2022-08-01T01:24:17;4.43;;;1.92;;
17696;SDS011;8967;47.984;7.842;2022-08-01T01:26:58;1.58;;;1.48;;
17696;SDS011;8967;47.984;7.842;2022-08-01T01:29:35;3.92;;;1.92;;
17696;SDS011;8967;47.984;7.842;2022-08-01T01:32:07;2.45;;;1.38;;
17696;SDS011;8967;47.984;7.842;2022-08-01T01:34:43;1.55;;;1.45;;
17696;SDS011;8967;47.984;7.842;2022-08-01T01:37:14;2.08;;;1.60;;
17696;SDS011;8967;47.984;7.842;2022-08-01T01:39:43;5.05;;;1.77;;
17696;SDS011;8967;47.984;7.842;2022-08-01T01:42:12;1.80;;;1.67;;
17696;SDS011;8967;47.984;7.842;2022-08-01T01:44:42;1.85;;;1.63;;
17696;SDS011;8967;47.984;7.842;2022-08-01T01:47:13;1.83;;;1.40;;
17696;SDS011;8967;47.984;7.842;2022-08-01T01:49:41;1.70;;;1.60;;
17696;SDS011;8967;47.984;7.842;2022-08-01T01:52:12;2.17;;;1.60;;
17696;SDS011;8967;47.984;7.842;2022-08-01T01:54:42;2.72;;;2.03;;
17696;SDS011;8967;47.984;7.842;2022-08-01T01:57:13;3.78;;;1.88;;
17696;SDS011;8967;47.984;7.842;2022-08-01T01:59:44;1.88;;;1.70;;
17696;SDS011;8967;47.984;7.842;2022-08-01T02:02:15;3.42;;;1.70;;
17696;SDS011;8967;47.984;7.842;2022-08-01T02:04:45;2.05;;;1.92;;
17696;SDS011;8967;47.984;7.842;2022-08-01T02:07:14;2.05;;;1.80;;
17696;SDS011;8967;47.984;7.842;2022-08-01T02:09:45;2.63;;;1.70;;
17696;SDS011;8967;47.984;7.842;2022-08-01T02:12:13;2.58;;;2.13;;
17696;SDS011;8967;47.984;7.842;2022-08-01T02:14:43;5.13;;;1.90;;
17696;SDS011;8967;47.984;7.842;2022-08-01T02:17:15;4.53;;;1.90;;
17696;SDS011;8967;47.984;7.842;2022-08-01T02:19:43;2.47;;;2.00;;
17696;SDS011;8967;47.984;7.842;2022-08-01T02:22:11;3.05;;;1.80;;
17696;SDS011;8967;47.984;7.842;2022-08-01T02:24:44;2.20;;;1.88;;
17696;SDS011;8967;47.984;7.842;2022-08-01T02:27:16;2.17;;;1.95;;
17696;SDS011;8967;47.984;7.842;2022-08-01T02:29:52;2.30;;;1.83;;
17696;SDS011;8967;47.984;7.842;2022-08-01T02:32:23;1.60;;;1.50;;
17696;SDS011;8967;47.984;7.842;2022-08-01T02:34:53;5.55;;;1.70;;
17696;SDS011;8967;47.984;7.842;2022-08-01T02:37:23;2.22;;;1.98;;
17696;SDS011;8967;47.984;7.842;2022-08-01T02:39:55;2.13;;;1.70;;
17696;SDS011;8967;47.984;7.842;2022-08-01T02:42:23;1.98;;;1.88;;
17696;SDS011;8967;47.984;7.842;2022-08-01T02:44:54;3.17;;;2.00;;
17696;SDS011;8967;47.984;7.842;2022-08-01T02:47:21;2.38;;;2.00;;
17696;SDS011;8967;47.984;7.842;2022-08-01T02:49:51;2.42;;;1.80;;
17696;SDS011;8967;47.984;7.842;2022-08-01T02:52:23;2.38;;;1.98;;
17696;SDS011;8967;47.984;7.842;2022-08-01T02:54:51;2.65;;;1.92;;
17696;SDS011;8967;47.984;7.842;2022-08-01T02:57:21;3.30;;;2.13;;
17696;SDS011;8967;47.984;7.842;2022-08-01T02:59:49;2.38;;;2.17;;
17696;SDS011;8967;47.984;7.842;2022-08-01T03:02:18;2.35;;;2.00;;
17696;SDS011;8967;47.984;7.842;2022-08-01T03:04:48;2.35;;;2.15;;
17696;SDS011;8967;47.984;7.842;2022-08-01T03:07:17;2.88;;;2.13;;
17696;SDS011;8967;47.984;7.842;2022-08-01T03:09:46;2.78;;;2.00;;
17696;SDS011;8967;47.984;7.842;2022-08-01T03:12:16;2.90;;;1.88;;
17696;SDS011;8967;47.984;7.842;2022-08-01T03:14:45;2.58;;;2.33;;
17696;SDS011;8967;47.984;7.842;2022-08-01T03:17:14;2.72;;;1.90;;
17696;SDS011;8967;47.984;7.842;2022-08-01T03:19:44;3.40;;;2.40;;
17696;SDS011;8967;47.984;7.842;2022-08-01T03:22:12;3.60;;;2.38;;
17696;SDS011;8967;47.984;7.842;2022-08-01T03:24:41;3.05;;;2.10;;
17696;SDS011;8967;47.984;7.842;2022-08-01T03:27:10;4.13;;;2.22;;
17696;SDS011;8967;47.984;7.842;2022-08-01T03:29:40;3.00;;;2.20;;
17696;SDS011;8967;47.984;7.842;2022-08-01T03:32:09;2.88;;;2.00;;
17696;SDS011;8967;47.984;7.842;2022-08-01T03:34:39;2.42;;;2.22;;
17696;SDS011;8967;47.984;7.842;2022-08-01T03:37:09;2.35;;;2.15;;
17696;SDS011;8967;47.984;7.842;2022-08-01T03:39:39;2.40;;;2.20;;
17696;SDS011;8967;47.984;7.842;2022-08-01T03:42:12;3.63;;;2.08;;
17696;SDS011;8967;47.984;7.842;2022-08-01T03:44:43;2.35;;;2.10;;
17696;SDS011;8967;47.984;7.842;2022-08-01T03:47:14;2.90;;;2.60;;
17696;SDS011;8967;47.984;7.842;2022-08-01T03:49:44;3.58;;;2.47;;
17696;SDS011;8967;47.984;7.842;2022-08-01T03:52:15;6.35;;;2.97;;
17696;SDS011;8967;47.984;7.842;2022-08-01T03:54:44;3.50;;;2.70;;
17696;SDS011;8967;47.984;7.842;2022-08-01T03:57:14;3.05;;;2.25;;
17696;SDS011;8967;47.984;7.842;2022-08-01T03:59:41;2.67;;;2.28;;
17696;SDS011;8967;47.984;7.842;2022-08-01T04:02:12;6.00;;;2.53;;
17696;SDS011;8967;47.984;7.842;2022-08-01T04:04:40;3.65;;;2.38;;
17696;SDS011;8967;47.984;7.842;2022-08-01T04:07:21;2.50;;;2.30;;
17696;SDS011;8967;47.984;7.842;2022-08-01T04:09:49;2.63;;;2.30;;
17696;SDS011;8967;47.984;7.842;2022-08-01T04:12:16;2.40;;;2.20;;
17696;SDS011;8967;47.984;7.842;2022-08-01T04:14:44;3.17;;;2.17;;
17696;SDS011;8967;47.984;7.842;2022-08-01T04:17:11;3.03;;;2.28;;
17696;SDS011;8967;47.984;7.842;2022-08-01T04:19:38;4.78;;;2.58;;
17696;SDS011;8967;47.984;7.842;2022-08-01T04:22:05;3.88;;;2.30;;
17696;SDS011;8967;47.984;7.842;2022-08-01T04:24:36;2.53;;;2.33;;
17696;SDS011;8967;47.984;7.842;2022-08-01T04:27:04;3.03;;;2.78;;
17696;SDS011;8967;47.984;7.842;2022-08-01T04:29:36;3.10;;;2.65;;
17696;SDS011;8967;47.984;7.842;2022-08-01T04:32:05;3.20;;;2.60;;
17696;SDS011;8967;47.984;7.842;2022-08-01T04:34:35;4.47;;;2.83;;
17696;SDS011;8967;47.984;7.842;2022-08-01T04:37:05;4.78;;;2.63;;
17696;SDS011;8967;47.984;7.842;2022-08-01T04:39:37;3.72;;;2.53;;
17696;SDS011;8967;47.984;7.842;2022-08-01T04:42:07;2.97;;;2.67;;
17696;SDS011;8967;47.984;7.842;2022-08-01T04:44:38;6.57;;;2.70;;
17696;SDS011;8967;47.984;7.842;2022-08-01T04:47:05;2.95;;;2.67;;
17696;SDS011;8967;47.984;7.842;2022-08-01T04:49:34;3.20;;;2.90;;
17696;SDS011;8967;47.984;7.842;2022-08-01T04:52:01;2.90;;;2.60;;
17696;SDS011;8967;47.984;7.842;2022-08-01T04:54:29;5.78;;;2.83;;
17696;SDS011;8967;47.984;7.842;2022-08-01T04:56:59;3.17;;;2.88;;
17696;SDS011;8967;47.984;7.842;2022-08-01T04:59:29;3.08;;;2.83;;
17696;SDS011;8967;47.984;7.842;2022-08-01T05:02:09;3.58;;;2.47;;
17696;SDS011;8967;47.984;7.842;2022-08-01T05:04:37;2.97;;;2.67;;
17696;SDS011;8967;47.984;7.842;2022-08-01T05:07:06;5.30;;;3.30;;
17696;SDS011;8967;47.984;7.842;2022-08-01T05:09:33;4.65;;;2.90;;
17696;SDS011;8967;47.984;7.842;2022-08-01T05:12:03;4.43;;;3.00;;
17696;SDS011;8967;47.984;7.842;2022-08-01T05:14:31;3.30;;;2.95;;
17696;SDS011;8967;47.984;7.842;2022-08-01T05:16:59;3.38;;;2.70;;
17696;SDS011;8967;47.984;7.842;2022-08-01T05:19:28;3.05;;;2.85;;
17696;SDS011;8967;47.984;7.842;2022-08-01T05:21:55;3.25;;;2.67;;
17696;SDS011;8967;47.984;7.842;2022-08-01T05:24:22;3.17;;;2.88;;
17696;SDS011;8967;47.984;7.842;2022-08-01T05:26:49;3.63;;;3.00;;
17696;SDS011;8967;47.984;7.842;2022-08-01T05:29:17;4.40;;;2.65;;
17696;SDS011;8967;47.984;7.842;2022-08-01T05:31:46;5.22;;;2.97;;
17696;SDS011;8967;47.984;7.842;2022-08-01T05:34:13;3.28;;;2.78;;
17696;SDS011;8967;47.984;7.842;2022-08-01T05:36:40;3.55;;;2.63;;
17696;SDS011;8967;47.984;7.842;2022-08-01T05:39:09;3.53;;;2.75;;
17696;SDS011;8967;47.984;7.842;2022-08-01T05:41:37;3.70;;;3.05;;
17696;SDS011;8967;47.984;7.842;2022-08-01T05:44:04;5.43;;;2.60;;
17696;SDS011;8967;47.984;7.842;2022-08-01T05:46:32;3.45;;;3.15;;
17696;SDS011;8967;47.984;7.842;2022-08-01T05:49:02;3.50;;;2.35;;
17696;SDS011;8967;47.984;7.842;2022-08-01T05:51:31;5.40;;;3.45;;
17696;SDS011;8967;47.984;7.842;2022-08-01T05:53:58;5.38;;;3.22;;
17696;SDS011;8967;47.984;7.842;2022-08-01T05:56:25;3.58;;;3.10;;
17696;SDS011;8967;47.984;7.842;2022-08-01T05:58:52;3.00;;;2.70;;
17696;SDS011;8967;47.984;7.842;2022-08-01T06:01:19;5.88;;;2.97;;
17696;SDS011;8967;47.984;7.842;2022-08-01T06:03:48;3.70;;;3.30;;
17696;SDS011;8967;47.984;7.842;2022-08-01T06:06:15;5.18;;;2.95;;
17696;SDS011;8967;47.984;7.842;2022-08-01T06:08:44;3.40;;;3.10;;
17696;SDS011;8967;47.984;7.842;2022-08-01T06:11:11;4.57;;;3.65;;
17696;SDS011;8967;47.984;7.842;2022-08-01T06:13:38;3.10;;;2.90;;
17696;SDS011;8967;47.984;7.842;2022-08-01T06:16:05;3.08;;;2.80;;
17696;SDS011;8967;47.984;7.842;2022-08-01T06:18:32;3.33;;;2.85;;
17696;SDS011;8967;47.984;7.842;2022-08-01T06:21:02;3.92;;;2.95;;
17696;SDS011;8967;47.984;7.842;2022-08-01T06:23:29;8.73;;;3.00;;
17696;SDS011;8967;47.984;7.842;2022-08-01T06:25:56;4.60;;;2.92;;
17696;SDS011;8967;47.984;7.842;2022-08-01T06:28:24;5.18;;;3.10;;
17696;SDS011;8967;47.984;7.842;2022-08-01T06:30:51;3.20;;;2.90;;
17696;SDS011;8967;47.984;7.842;2022-08-01T06:33:18;3.42;;;2.92;;
17696;SDS011;8967;47.984;7.842;2022-08-01T06:35:45;3.03;;;2.83;;
17696;SDS011;8967;47.984;7.842;2022-08-01T06:38:14;5.80;;;3.10;;
17696;SDS011;8967;47.984;7.842;2022-08-01T06:40:43;3.15;;;2.95;;
17696;SDS011;8967;47.984;7.842;2022-08-01T06:43:10;3.72;;;3.00;;
17696;SDS011;8967;47.984;7.842;2022-08-01T06:45:38;4.38;;;3.10;;
17696;SDS011;8967;47.984;7.842;2022-08-01T06:48:05;4.63;;;3.17;;
17696;SDS011;8967;47.984;7.842;2022-08-01T06:50:32;3.50;;;3.20;;
17696;SDS011;8967;47.984;7.842;2022-08-01T06:53:01;4.32;;;3.13;;
17696;SDS011;8967;47.984;7.842;2022-08-01T06:55:32;5.72;;;3.72;;
17696;SDS011;8967;47.984;7.842;2022-08-01T06:57:59;6.15;;;4.35;;
17696;SDS011;8967;47.984;7.842;2022-08-01T07:00:28;3.63;;;3.33;;
17696;SDS011;8967;47.984;7.842;2022-08-01T07:02:56;5.40;;;3.30;;
17696;SDS011;8967;47.984;7.842;2022-08-01T07:05:24;5.65;;;3.75;;
17696;SDS011;8967;47.984;7.842;2022-08-01T07:07:51;3.85;;;3.13;;
17696;SDS011;8967;47.984;7.842;2022-08-01T07:10:18;5.68;;;3.40;;
17696;SDS011;8967;47.984;7.842;2022-08-01T07:12:47;4.20;;;3.20;;
17696;SDS011;8967;47.984;7.842;2022-08-01T07:15:14;4.82;;;3.35;;
17696;SDS011;8967;47.984;7.842;2022-08-01T07:17:41;5.15;;;3.08;;
17696;SDS011;8967;47.984;7.842;2022-08-01T07:20:09;7.82;;;3.30;;
17696;SDS011;8967;47.984;7.842;2022-08-01T07:22:38;5.50;;;3.30;;
17696;SDS011;8967;47.984;7.842;2022-08-01T07:25:05;5.28;;;3.30;;
17696;SDS011;8967;47.984;7.842;2022-08-01T07:27:33;3.72;;;3.20;;
17696;SDS011;8967;47.984;7.842;2022-08-01T07:30:02;3.72;;;3.20;;
17696;SDS011;8967;47.984;7.842;2022-08-01T07:32:30;6.32;;;3.42;;
17696;SDS011;8967;47.984;7.842;2022-08-01T07:34:57;3.65;;;3.35;;
17696;SDS011;8967;47.984;7.842;2022-08-01T07:37:24;6.90;;;3.03;;
17696;SDS011;8967;47.984;7.842;2022-08-01T07:39:50;6.53;;;3.58;;
17696;SDS011;8967;47.984;7.842;2022-08-01T07:42:17;5.97;;;3.58;;
17696;SDS011;8967;47.984;7.842;2022-08-01T07:44:44;5.68;;;3.50;;
17696;SDS011;8967;47.984;7.842;2022-08-01T07:47:13;4.97;;;3.42;;
17696;SDS011;8967;47.984;7.842;2022-08-01T07:49:40;6.05;;;3.65;;
17696;SDS011;8967;47.984;7.842;2022-08-01T07:52:07;3.45;;;3.10;;
17696;SDS011;8967;47.984;7.842;2022-08-01T07:54:34;5.82;;;3.65;;
17696;SDS011;8967;47.984;7.842;2022-08-01T07:57:02;5.55;;;3.60;;
17696;SDS011;8967;47.984;7.842;2022-08-01T07:59:30;3.88;;;3.47;;
17696;SDS011;8967;47.984;7.842;2022-08-01T08:01:57;4.30;;;3.40;;
17696;SDS011;8967;47.984;7.842;2022-08-01T08:04:25;3.78;;;3.47;;
17696;SDS011;8967;47.984;7.842;2022-08-01T08:06:53;5.60;;;3.35;;
17696;SDS011;8967;47.984;7.842;2022-08-01T08:09:20;4.32;;;3.25;;
17696;SDS011;8967;47.984;7.842;2022-08-01T08:11:47;7.60;;;3.95;;
17696;SDS011;8967;47.984;7.842;2022-08-01T08:14:17;4.68;;;3.83;;
17696;SDS011;8967;47.984;7.842;2022-08-01T08:16:44;4.68;;;3.25;;
17696;SDS011;8967;47.984;7.842;2022-08-01T08:19:11;5.82;;;3.70;;
17696;SDS011;8967;47.984;7.842;2022-08-01T08:21:42;4.13;;;3.35;;
17696;SDS011;8967;47.984;7.842;2022-08-01T08:24:09;5.53;;;3.55;;
17696;SDS011;8967;47.984;7.842;2022-08-01T08:26:45;4.15;;;3.38;;
17696;SDS011;8967;47.984;7.842;2022-08-01T08:29:12;4.50;;;3.90;;
17696;SDS011;8967;47.984;7.842;2022-08-01T08:31:40;4.82;;;3.55;;
17696;SDS011;8967;47.984;7.842;2022-08-01T08:34:09;3.90;;;3.58;;
17696;SDS011;8967;47.984;7.842;2022-08-01T08:36:36;3.78;;;3.13;;
17696;SDS011;8967;47.984;7.842;2022-08-01T08:39:04;3.38;;;3.00;;
17696;SDS011;8967;47.984;7.842;2022-08-01T08:41:32;3.72;;;3.13;;
17696;SDS011;8967;47.984;7.842;2022-08-01T08:44:00;6.60;;;3.40;;
17696;SDS011;8967;47.984;7.842;2022-08-01T08:46:27;4.00;;;3.10;;
17696;SDS011;8967;47.984;7.842;2022-08-01T08:48:54;4.35;;;3.33;;
17696;SDS011;8967;47.984;7.842;2022-08-01T08:51:23;3.58;;;3.25;;
17696;SDS011;8967;47.984;7.842;2022-08-01T08:53:53;3.90;;;3.50;;
17696;SDS011;8967;47.984;7.842;2022-08-01T08:56:23;4.15;;;3.10;;
17696;SDS011;8967;47.984;7.842;2022-08-01T08:58:51;4.28;;;3.40;;
17696;SDS011;8967;47.984;7.842;2022-08-01T09:01:18;4.03;;;3.38;;
17696;SDS011;8967;47.984;7.842;2022-08-01T09:03:45;3.10;;;2.78;;
17696;SDS011;8967;47.984;7.842;2022-08-01T09:06:16;3.88;;;3.58;;
17696;SDS011;8967;47.984;7.842;2022-08-01T09:08:43;6.13;;;3.17;;
17696;SDS011;8967;47.984;7.842;2022-08-01T09:11:10;5.68;;;3.10;;
17696;SDS011;8967;47.984;7.842;2022-08-01T09:13:38;4.00;;;3.45;;
17696;SDS011;8967;47.984;7.842;2022-08-01T09:16:05;5.35;;;2.75;;
17696;SDS011;8967;47.984;7.842;2022-08-01T09:18:33;5.18;;;3.13;;
17696;SDS011;8967;47.984;7.842;2022-08-01T09:21:08;4.68;;;3.10;;
17696;SDS011;8967;47.984;7.842;2022-08-01T09:23:41;4.90;;;3.13;;
17696;SDS011;8967;47.984;7.842;2022-08-01T09:26:10;4.70;;;3.05;;
17696;SDS011;8967;47.984;7.842;2022-08-01T09:28:40;3.00;;;2.58;;
17696;SDS011;8967;47.984;7.842;2022-08-01T09:31:09;3.97;;;3.20;;
17696;SDS011;8967;47.984;7.842;2022-08-01T09:33:50;6.03;;;3.20;;
17696;SDS011;8967;47.984;7.842;2022-08-01T09:36:19;5.55;;;3.08;;
17696;SDS011;8967;47.984;7.842;2022-08-01T09:38:47;3.20;;;2.78;;
17696;SDS011;8967;47.984;7.842;2022-08-01T09:41:15;2.95;;;2.65;;
17696;SDS011;8967;47.984;7.842;2022-08-01T09:43:48;4.55;;;2.67;;
17696;SDS011;8967;47.984;7.842;2022-08-01T09:46:16;3.67;;;2.80;;
17696;SDS011;8967;47.984;7.842;2022-08-01T09:48:56;3.00;;;2.63;;
17696;SDS011;8967;47.984;7.842;2022-08-01T09:51:28;3.40;;;3.10;;
17696;SDS011;8967;47.984;7.842;2022-08-01T09:53:56;2.95;;;2.65;;
17696;SDS011;8967;47.984;7.842;2022-08-01T09:56:26;2.83;;;2.63;;
17696;SDS011;8967;47.984;7.842;2022-08-01T09:59:03;5.50;;;3.10;;
17696;SDS011;8967;47.984;7.842;2022-08-01T10:01:41;2.83;;;2.55;;
17696;SDS011;8967;47.984;7.842;2022-08-01T10:04:10;4.07;;;2.58;;
17696;SDS011;8967;47.984;7.842;2022-08-01T10:06:38;2.53;;;2.33;;
17696;SDS011;8967;47.984;7.842;2022-08-01T10:09:08;3.17;;;2.10;;
17696;SDS011;8967;47.984;7.842;2022-08-01T10:11:35;3.30;;;2.40;;
17696;SDS011;8967;47.984;7.842;2022-08-01T10:14:05;7.65;;;2.65;;
17696;SDS011;8967;47.984;7.842;2022-08-01T10:16:33;2.38;;;2.20;;
17696;SDS011;8967;47.984;7.842;2022-08-01T10:19:02;4.95;;;2.40;;
17696;SDS011;8967;47.984;7.842;2022-08-01T10:21:33;4.47;;;2.58;;
17696;SDS011;8967;47.984;7.842;2022-08-01T10:24:02;2.33;;;2.13;;
17696;SDS011;8967;47.984;7.842;2022-08-01T10:26:32;3.88;;;2.42;;
17696;SDS011;8967;47.984;7.842;2022-08-01T10:28:59;4.70;;;2.58;;
17696;SDS011;8967;47.984;7.842;2022-08-01T10:31:30;2.15;;;1.95;;
17696;SDS011;8967;47.984;7.842;2022-08-01T10:33:58;2.60;;;2.40;;
17696;SDS011;8967;47.984;7.842;2022-08-01T10:36:25;3.05;;;2.20;;
17696;SDS011;8967;47.984;7.842;2022-08-01T10:38:53;2.40;;;2.20;;
17696;SDS011;8967;47.984;7.842;2022-08-01T10:41:21;3.78;;;2.13;;
17696;SDS011;8967;47.984;7.842;2022-08-01T10:43:50;3.10;;;2.70;;
17696;SDS011;8967;47.984;7.842;2022-08-01T10:46:20;5.10;;;2.25;;
17696;SDS011;8967;47.984;7.842;2022-08-01T10:48:49;4.90;;;2.85;;
17696;SDS011;8967;47.984;7.842;2022-08-01T10:51:21;3.42;;;2.53;;
17696;SDS011;8967;47.984;7.842;2022-08-01T10:53:50;3.83;;;2.10;;
17696;SDS011;8967;47.984;7.842;2022-08-01T10:56:18;3.83;;;2.60;;
17696;SDS011;8967;47.984;7.842;2022-08-01T10:58:47;2.42;;;2.22;;
17696;SDS011;8967;47.984;7.842;2022-08-01T11:01:15;6.10;;;2.50;;
17696;SDS011;8967;47.984;7.842;2022-08-01T11:03:57;2.38;;;2.17;;
17696;SDS011;8967;47.984;7.842;2022-08-01T11:06:33;2.58;;;2.38;;
17696;SDS011;8967;47.984;7.842;2022-08-01T11:09:20;4.00;;;2.10;;
17696;SDS011;8967;47.984;7.842;2022-08-01T11:12:00;2.35;;;2.10;;
17696;SDS011;8967;47.984;7.842;2022-08-01T11:14:33;4.57;;;2.00;;
17696;SDS011;8967;47.984;7.842;2022-08-01T11:17:30;2.38;;;2.08;;
17696;SDS011;8967;47.984;7.842;2022-08-01T11:20:09;2.35;;;2.15;;
17696;SDS011;8967;47.984;7.842;2022-08-01T11:31:44;2.33;;;2.10;;
17696;SDS011;8967;47.984;7.842;2022-08-01T11:34:11;3.53;;;2.15;;
17696;SDS011;8967;47.984;7.842;2022-08-01T11:36:39;2.65;;;1.83;;
17696;SDS011;8967;47.984;7.842;2022-08-01T11:39:16;1.92;;;1.83;;
17696;SDS011;8967;47.984;7.842;2022-08-01T11:41:46;2.10;;;1.90;;
17696;SDS011;8967;47.984;7.842;2022-08-01T11:44:15;2.30;;;1.92;;
17696;SDS011;8967;47.984;7.842;2022-08-01T11:46:45;1.95;;;1.73;;
17696;SDS011;8967;47.984;7.842;2022-08-01T11:49:23;2.22;;;1.98;;
17696;SDS011;8967;47.984;7.842;2022-08-01T11:51:59;3.95;;;2.42;;
17696;SDS011;8967;47.984;7.842;2022-08-01T11:54:29;2.22;;;2.03;;
17696;SDS011;8967;47.984;7.842;2022-08-01T11:56:57;3.58;;;2.20;;
17696;SDS011;8967;47.984;7.842;2022-08-01T11:59:25;3.55;;;2.05;;
17696;SDS011;8967;47.984;7.842;2022-08-01T12:01:53;2.85;;;2.05;;
17696;SDS011;8967;47.984;7.842;2022-08-01T12:04:20;4.07;;;3.13;;
17696;SDS011;8967;47.984;7.842;2022-08-01T12:06:47;5.93;;;2.60;;
17696;SDS011;8967;47.984;7.842;2022-08-01T12:09:16;4.47;;;2.50;;
17696;SDS011;8967;47.984;7.842;2022-08-01T12:11:46;5.25;;;2.38;;
17696;SDS011;8967;47.984;7.842;2022-08-01T12:14:20;3.38;;;2.60;;
17696;SDS011;8967;47.984;7.842;2022-08-01T12:16:48;2.65;;;2.40;;
17696;SDS011;8967;47.984;7.842;2022-08-01T12:19:18;3.50;;;2.58;;
17696;SDS011;8967;47.984;7.842;2022-08-01T12:21:59;3.42;;;2.58;;
17696;SDS011;8967;47.984;7.842;2022-08-01T12:24:33;4.90;;;2.75;;
17696;SDS011;8967;47.984;7.842;2022-08-01T12:27:01;3.50;;;2.42;;
17696;SDS011;8967;47.984;7.842;2022-08-01T12:29:31;3.70;;;2.42;;
17696;SDS011;8967;47.984;7.842;2022-08-01T12:31:59;2.70;;;2.50;;
17696;SDS011;8967;47.984;7.842;2022-08-01T12:34:27;4.40;;;2.35;;
17696;SDS011;8967;47.984;7.842;2022-08-01T12:36:54;2.50;;;2.30;;
17696;SDS011;8967;47.984;7.842;2022-08-01T12:39:28;3.55;;;2.88;;
17696;SDS011;8967;47.984;7.842;2022-08-01T12:41:57;6.70;;;2.42;;
17696;SDS011;8967;47.984;7.842;2022-08-01T12:44:25;2.45;;;2.25;;
17696;SDS011;8967;47.984;7.842;2022-08-01T12:46:52;2.72;;;2.30;;
17696;SDS011;8967;47.984;7.842;2022-08-01T12:49:20;2.42;;;2.25;;
17696;SDS011;8967;47.984;7.842;2022-08-01T12:51:47;5.75;;;2.42;;
17696;SDS011;8967;47.984;7.842;2022-08-01T12:54:14;3.08;;;2.72;;
17696;SDS011;8967;47.984;7.842;2022-08-01T12:56:41;4.88;;;2.60;;
17696;SDS011;8967;47.984;7.842;2022-08-01T12:59:23;2.85;;;2.33;;
17696;SDS011;8967;47.984;7.842;2022-08-01T13:01:52;4.15;;;2.45;;
17696;SDS011;8967;47.984;7.842;2022-08-01T13:04:19;2.28;;;2.17;;
17696;SDS011;8967;47.984;7.842;2022-08-01T13:06:46;4.35;;;2.60;;
17696;SDS011;8967;47.984;7.842;2022-08-01T13:09:13;4.28;;;3.03;;
17696;SDS011;8967;47.984;7.842;2022-08-01T13:11:40;2.70;;;2.50;;
17696;SDS011;8967;47.984;7.842;2022-08-01T13:14:08;2.85;;;2.65;;
17696;SDS011;8967;47.984;7.842;2022-08-01T13:16:46;3.10;;;2.90;;
17696;SDS011;8967;47.984;7.842;2022-08-01T13:19:14;3.47;;;2.90;;
17696;SDS011;8967;47.984;7.842;2022-08-01T13:21:52;4.53;;;2.97;;
17696;SDS011;8967;47.984;7.842;2022-08-01T13:24:24;3.15;;;2.85;;
17696;SDS011;8967;47.984;7.842;2022-08-01T13:26:52;3.33;;;2.78;;
17696;SDS011;8967;47.984;7.842;2022-08-01T13:29:29;3.88;;;2.70;;
17696;SDS011;8967;47.984;7.842;2022-08-01T13:31:59;3.90;;;3.10;;
17696;SDS011;8967;47.984;7.842;2022-08-01T13:34:30;4.63;;;3.22;;
17696;SDS011;8967;47.984;7.842;2022-08-01T13:37:00;8.07;;;2.88;;
17696;SDS011;8967;47.984;7.842;2022-08-01T13:39:33;3.85;;;3.05;;
17696;SDS011;8967;47.984;7.842;2022-08-01T13:42:06;3.42;;;3.13;;
17696;SDS011;8967;47.984;7.842;2022-08-01T13:44:36;3.47;;;3.17;;
17696;SDS011;8967;47.984;7.842;2022-08-01T13:47:05;4.10;;;2.60;;
17696;SDS011;8967;47.984;7.842;2022-08-01T13:49:32;4.13;;;3.03;;
17696;SDS011;8967;47.984;7.842;2022-08-01T13:51:59;2.88;;;2.67;;
17696;SDS011;8967;47.984;7.842;2022-08-01T13:54:27;4.63;;;2.97;;
17696;SDS011;8967;47.984;7.842;2022-08-01T13:56:54;3.72;;;2.88;;
17696;SDS011;8967;47.984;7.842;2022-08-01T13:59:24;3.65;;;2.85;;
17696;SDS011;8967;47.984;7.842;2022-08-01T14:01:51;3.63;;;3.33;;
17696;SDS011;8967;47.984;7.842;2022-08-01T14:04:19;3.38;;;3.00;;
17696;SDS011;8967;47.984;7.842;2022-08-01T14:06:47;3.35;;;2.90;;
17696;SDS011;8967;47.984;7.842;2022-08-01T14:09:14;4.13;;;3.20;;
17696;SDS011;8967;47.984;7.842;2022-08-01T14:11:44;5.13;;;3.05;;
17696;SDS011;8967;47.984;7.842;2022-08-01T14:14:11;4.57;;;3.28;;
17696;SDS011;8967;47.984;7.842;2022-08-01T14:16:38;2.92;;;2.70;;
17696;SDS011;8967;47.984;7.842;2022-08-01T14:19:05;3.50;;;3.20;;
17696;SDS011;8967;47.984;7.842;2022-08-01T14:21:34;6.28;;;3.38;;
17696;SDS011;8967;47.984;7.842;2022-08-01T14:24:01;3.83;;;2.95;;
17696;SDS011;8967;47.984;7.842;2022-08-01T14:26:30;4.85;;;3.25;;
17696;SDS011;8967;47.984;7.842;2022-08-01T14:28:57;4.72;;;3.13;;
17696;SDS011;8967;47.984;7.842;2022-08-01T14:31:24;3.03;;;2.67;;
17696;SDS011;8967;47.984;7.842;2022-08-01T14:33:51;5.93;;;3.25;;
17696;SDS011;8967;47.984;7.842;2022-08-01T14:36:18;3.40;;;3.10;;
17696;SDS011;8967;47.984;7.842;2022-08-01T14:38:49;4.28;;;3.20;;
17696;SDS011;8967;47.984;7.842;2022-08-01T14:41:18;3.25;;;2.88;;
17696;SDS011;8967;47.984;7.842;2022-08-01T14:43:45;3.15;;;2.90;;
17696;SDS011;8967;47.984;7.842;2022-08-01T14:46:12;4.47;;;2.75;;
17696;SDS011;8967;47.984;7.842;2022-08-01T14:48:39;4.05;;;3.65;;
17696;SDS011;8967;47.984;7.842;2022-08-01T14:51:06;3.88;;;3.22;;
17696;SDS011;8967;47.984;7.842;2022-08-01T14:53:33;4.07;;;2.78;;
17696;SDS011;8967;47.984;7.842;2022-08-01T14:56:03;3.30;;;3.00;;
17696;SDS011;8967;47.984;7.842;2022-08-01T14:58:30;6.55;;;3.15;;
17696;SDS011;8967;47.984;7.842;2022-08-01T15:00:57;5.20;;;2.70;;
17696;SDS011;8967;47.984;7.842;2022-08-01T15:03:25;3.25;;;2.97;;
17696;SDS011;8967;47.984;7.842;2022-08-01T15:05:52;3.92;;;2.90;;
17696;SDS011;8967;47.984;7.842;2022-08-01T15:08:19;4.82;;;2.90;;
17696;SDS011;8967;47.984;7.842;2022-08-01T15:10:46;4.75;;;2.75;;
17696;SDS011;8967;47.984;7.842;2022-08-01T15:13:15;4.75;;;2.88;;
17696;SDS011;8967;47.984;7.842;2022-08-01T15:15:41;5.38;;;3.00;;
17696;SDS011;8967;47.984;7.842;2022-08-01T15:18:08;3.30;;;2.90;;
17696;SDS011;8967;47.984;7.842;2022-08-01T15:20:35;3.45;;;2.88;;
17696;SDS011;8967;47.984;7.842;2022-08-01T15:23:02;3.70;;;2.92;;